Summerfield, TX (79085)

11:11 AM CDT on July 25, 2016 (GMT -0500)
S Main & Walnut Rd | | Change Station

Elev 3855 ft 34.79 °N, 102.39 °W | Updated 14 seconds ago

Clear
Clear
85.5 °F
Feels Like 85 °F
N
3.6
Wind Variable Wind from WNW
Gusts 4.9 mph

Today
High -- | Low -- °F
--% Chance of Precip.
Yesterday
High -- | Low -- °F
Precip. -- in
Pressure 30.17 in
Visibility 10.0 miles
Clouds Clear
Heat Index 85 °F
Dew Point 60 °F
Humidity 42%
Rainfall 0.00 in
Snow Depth Not available.
6:55 AM 8:57 PM
Waning Gibbous, 64% visible
METAR KHRX 251555Z AUTO 31007KT 10SM CLR 31/16 A3017 RMK AO2 T03060164 TSNO
Pressure 30.17 in
Visibility 10.0 miles
Clouds Clear
Heat Index 85 °F
Dew Point 60 °F
Humidity 42%
Rainfall 0.00 in
Snow Depth Not available.
6:55 AM 8:57 PM
Waning Gibbous, 64% visible
METAR KHRX 251555Z AUTO 31007KT 10SM CLR 31/16 A3017 RMK AO2 T03060164 TSNO

10-Day Weather Forecast

Almanac

Astronomy

Jul. 25, 2016 Rise Set
Actual Time
Civil Twilight
Nautical Twilight
Astronomical Twilight
Moon
Length of Visible Light
Length of Day
Tomorrow will be .
, % of the Moon is Illuminated

Today's Extremes

State Highs State Lows

Community

WunderPhotos

Upload Photos

1,927,342 photos uploaded!

WunderBlog® & News

Nearby

Air Quality

  Air Quality AQ Index Pollutant
Not available.

Snow Depth

Station Depth Elevation

Earthquake Activity

City Distance Mag. Time & Date
Minimum magnitude displayed is 2.5.

Coastal Water Temperatures

Place Temperature

Stations

Nearby Weather Stations

Station Location Temp. Windchill Dew Point Humidity Wind Precip. Elev Updated Type
                   

Watches & Warnings

There are currently no watches in effect.